Time;durP1;ratioP1;P1;durP2;ratioP2;P2;SDS_P1;SDS_P2;PMS_P1;PMS_P2;Temp;Humidity;BMP_temperature;BMP_pressure;BME280_temperature;BME280_humidity;BME280_pressure;Samples;Min_cycle;Max_cycle;Signal;HPM_P1;HPM_P2
2022/11/20 00:00:51;;;;;;;11.25;7.00;;;2.40;92.50;;;;;;4997019;28;20046;-71
2022/11/20 00:03:17;;;;;;;13.25;6.72;;;2.30;92.60;;;;;;4997955;28;20033;-70
2022/11/20 00:05:44;;;;;;;10.73;6.72;;;2.40;92.50;;;;;;5002848;28;20668;-70
2022/11/20 00:08:10;;;;;;;11.63;5.75;;;2.40;92.30;;;;;;5002887;28;20033;-70
2022/11/20 00:10:39;;;;;;;12.48;6.93;;;2.40;92.30;;;;;;5006777;28;20382;-70
2022/11/20 00:13:05;;;;;;;12.38;5.97;;;2.40;92.50;;;;;;5005042;28;20030;-71
2022/11/20 00:15:31;;;;;;;11.35;6.07;;;2.40;92.40;;;;;;5017652;28;20030;-71
2022/11/20 00:17:57;;;;;;;9.82;5.75;;;2.50;92.50;;;;;;5000848;28;20099;-70
2022/11/20 00:20:23;;;;;;;13.48;6.80;;;2.50;92.50;;;;;;4999662;28;20083;-70
2022/11/20 00:22:49;;;;;;;13.63;6.40;;;2.50;92.40;;;;;;4999998;28;20079;-71
2022/11/20 00:25:15;;;;;;;13.25;6.18;;;2.50;92.30;;;;;;4992680;28;20084;-69
2022/11/20 00:27:41;;;;;;;12.50;6.60;;;2.50;92.30;;;;;;5004892;28;20125;-70
2022/11/20 00:30:08;;;;;;;12.98;6.30;;;2.50;92.20;;;;;;5004291;28;20029;-70
2022/11/20 00:32:33;;;;;;;10.77;6.15;;;2.50;92.20;;;;;;4995649;28;20050;-70
2022/11/20 00:34:59;;;;;;;11.63;6.20;;;2.40;92.20;;;;;;5002409;28;20042;-70
2022/11/20 00:37:25;;;;;;;11.32;6.03;;;2.40;92.30;;;;;;4998814;28;20042;-71
2022/11/20 00:39:51;;;;;;;12.70;6.78;;;2.40;92.30;;;;;;5001523;28;20038;-71
2022/11/20 00:42:17;;;;;;;11.18;6.40;;;2.40;92.30;;;;;;4997188;28;20050;-71
2022/11/20 00:44:42;;;;;;;11.57;5.55;;;2.40;92.30;;;;;;4996463;28;20475;-70
2022/11/20 00:47:08;;;;;;;9.75;5.40;;;2.40;92.60;;;;;;5002372;28;20030;-71
2022/11/20 00:49:34;;;;;;;13.30;6.75;;;2.40;92.30;;;;;;4997773;28;20172;-71
2022/11/20 00:52:00;;;;;;;10.85;6.15;;;2.40;92.30;;;;;;4999923;28;20042;-72
2022/11/20 00:54:26;;;;;;;12.02;6.00;;;2.40;92.30;;;;;;5005039;28;20044;-71
2022/11/20 00:56:54;;;;;;;9.50;5.30;;;2.40;92.30;;;;;;5000650;28;20069;-71
2022/11/20 00:59:20;;;;;;;12.13;6.57;;;2.40;92.30;;;;;;5000258;28;20029;-71
2022/11/20 01:01:46;;;;;;;11.35;6.35;;;2.40;92.30;;;;;;4994988;28;20044;-71
2022/11/20 01:04:11;;;;;;;11.60;6.22;;;2.40;92.30;;;;;;4999925;28;20026;-71
2022/11/20 01:06:39;;;;;;;11.90;5.70;;;2.40;92.50;;;;;;4996883;28;20026;-71
2022/11/20 01:09:11;;;;;;;10.63;6.20;;;2.40;92.40;;;;;;5001023;28;20080;-71
2022/11/20 01:11:39;;;;;;;9.90;6.25;;;2.40;92.40;;;;;;4995536;28;20045;-71
2022/11/20 01:14:09;;;;;;;10.80;6.32;;;2.40;92.30;;;;;;4992378;28;20039;-71
2022/11/20 01:16:40;;;;;;;9.23;5.70;;;2.40;92.20;;;;;;5001022;28;20540;-71
2022/11/20 01:19:15;;;;;;;13.57;6.60;;;2.40;92.20;;;;;;4997384;28;20057;-70
2022/11/20 01:21:42;;;;;;;11.30;6.15;;;2.30;92.10;;;;;;5000914;28;20688;-71
2022/11/20 01:24:11;;;;;;;12.90;6.30;;;2.30;92.10;;;;;;5001762;28;20034;-71
2022/11/20 01:26:39;;;;;;;11.55;6.28;;;2.30;92.10;;;;;;5007900;28;20056;-71
2022/11/20 01:29:07;;;;;;;13.93;7.28;;;2.30;92.10;;;;;;5006040;28;20270;-71
2022/11/20 01:31:37;;;;;;;12.52;6.80;;;2.30;91.90;;;;;;5003944;28;20103;-72
2022/11/20 01:34:10;;;;;;;9.50;5.72;;;2.20;92.10;;;;;;5000986;28;20038;-72
2022/11/20 01:36:37;;;;;;;15.38;7.40;;;2.20;92.20;;;;;;5004333;28;20048;-72
2022/11/20 01:39:06;;;;;;;13.23;6.43;;;2.20;92.10;;;;;;4994605;28;20033;-72
2022/11/20 01:45:00;;;;;;;12.15;6.60;;;2.10;92.20;;;;;;4979861;28;20120;-72
2022/11/20 01:47:40;;;;;;;12.10;6.50;;;2.10;92.20;;;;;;4999725;28;20127;-73
2022/11/20 01:50:13;;;;;;;10.52;6.22;;;2.10;92.40;;;;;;5002751;28;20653;-72
2022/11/20 01:52:54;;;;;;;11.40;6.43;;;2.10;92.40;;;;;;5004374;28;20025;-72
2022/11/20 01:55:25;;;;;;;11.27;6.68;;;2.10;92.40;;;;;;5000834;28;20041;-72
2022/11/20 01:57:51;;;;;;;10.88;6.32;;;2.00;92.40;;;;;;5005867;28;20156;-72
2022/11/20 02:00:19;;;;;;;11.35;6.00;;;2.10;92.40;;;;;;5003525;28;20045;-72
2022/11/20 02:02:51;;;;;;;15.00;6.82;;;2.00;92.30;;;;;;5017536;28;20486;-72
2022/11/20 02:05:29;;;;;;;13.82;7.03;;;2.00;92.30;;;;;;5003725;28;20037;-71
2022/11/20 02:07:57;;;;;;;11.02;6.35;;;2.00;92.30;;;;;;5001143;28;20084;-72
2022/11/20 02:10:23;;;;;;;13.43;6.88;;;1.90;92.30;;;;;;5003665;28;20029;-71
2022/11/20 02:15:34;;;;;;;12.93;6.38;;;1.90;92.40;;;;;;5001497;28;20109;-71
2022/11/20 02:18:00;;;;;;;17.20;7.85;;;1.80;92.50;;;;;;4997309;28;20038;-71
2022/11/20 02:20:26;;;;;;;13.73;7.72;;;1.80;92.40;;;;;;5000998;28;20041;-71
2022/11/20 02:23:01;;;;;;;14.30;7.55;;;1.80;92.70;;;;;;5006638;28;20026;-71
2022/11/20 02:25:29;;;;;;;13.13;7.10;;;1.70;92.70;;;;;;5000879;28;20124;-71
2022/11/20 02:27:56;;;;;;;15.48;7.22;;;1.70;93.00;;;;;;4998814;28;20034;-71
2022/11/20 02:30:22;;;;;;;14.80;7.22;;;1.60;93.00;;;;;;5001690;28;20045;-71
2022/11/20 02:32:48;;;;;;;14.20;7.35;;;1.60;93.00;;;;;;5001454;28;20044;-72
2022/11/20 02:35:19;;;;;;;16.25;8.43;;;1.60;93.00;;;;;;4999326;28;20042;-74
2022/11/20 02:37:50;;;;;;;16.00;8.02;;;1.60;93.10;;;;;;5013521;28;20041;-73
2022/11/20 02:40:16;;;;;;;15.23;7.88;;;1.60;93.30;;;;;;5007516;28;20038;-76
2022/11/20 02:42:42;;;;;;;11.05;6.30;;;1.60;93.40;;;;;;5004936;28;20056;-76
2022/11/20 02:45:08;;;;;;;14.00;7.63;;;1.50;93.30;;;;;;4999879;28;20046;-76
2022/11/20 02:47:34;;;;;;;13.82;7.80;;;1.60;93.40;;;;;;4998135;28;20025;-76
2022/11/20 02:50:00;;;;;;;16.40;8.20;;;1.60;93.30;;;;;;5000086;28;20037;-76
2022/11/20 02:52:26;;;;;;;16.05;8.23;;;1.60;93.30;;;;;;5000436;28;20038;-76
2022/11/20 02:54:52;;;;;;;15.75;8.10;;;1.60;93.50;;;;;;5008135;28;20061;-74
2022/11/20 02:57:18;;;;;;;16.67;8.55;;;1.60;93.60;;;;;;5008284;28;20572;-74
2022/11/20 02:59:43;;;;;;;14.55;8.52;;;1.50;93.60;;;;;;5001150;28;20032;-73
2022/11/20 03:02:09;;;;;;;15.75;8.63;;;1.60;93.80;;;;;;5005277;28;20045;-76
2022/11/20 03:04:35;;;;;;;18.00;8.80;;;1.60;93.80;;;;;;4999893;28;20040;-76
2022/11/20 03:07:01;;;;;;;16.52;8.40;;;1.60;93.80;;;;;;4998535;28;20041;-76
2022/11/20 03:09:26;;;;;;;16.17;8.52;;;1.60;93.70;;;;;;5003688;28;20088;-76
2022/11/20 03:11:52;;;;;;;14.57;7.88;;;1.60;93.70;;;;;;5003683;28;20100;-76
2022/11/20 03:14:18;;;;;;;16.88;8.35;;;1.60;93.70;;;;;;4995774;28;20497;-76
2022/11/20 03:16:44;;;;;;;14.38;7.50;;;1.70;93.80;;;;;;5001984;28;20041;-76
2022/11/20 03:19:11;;;;;;;17.92;8.65;;;1.70;93.60;;;;;;5002790;28;20030;-76
2022/11/20 03:21:36;;;;;;;15.23;8.02;;;1.70;93.60;;;;;;5005391;28;20116;-76
2022/11/20 03:24:03;;;;;;;16.48;8.40;;;1.70;93.60;;;;;;5001897;28;20032;-74
2022/11/20 03:26:29;;;;;;;14.45;7.38;;;1.70;93.60;;;;;;5008232;28;20489;-76
2022/11/20 03:29:00;;;;;;;15.77;7.90;;;1.70;93.60;;;;;;5002512;28;20048;-76
2022/11/20 03:31:29;;;;;;;16.13;8.82;;;1.70;93.60;;;;;;4998275;28;20431;-76
2022/11/20 03:33:56;;;;;;;17.00;9.13;;;1.70;93.60;;;;;;5001668;28;20918;-73
2022/11/20 03:36:22;;;;;;;15.50;7.88;;;1.70;94.00;;;;;;5004943;28;20061;-76
2022/11/20 03:38:49;;;;;;;15.93;8.65;;;1.60;94.00;;;;;;5006403;28;20091;-76
2022/11/20 03:41:21;;;;;;;15.70;8.63;;;1.70;94.10;;;;;;5001636;28;20092;-76
2022/11/20 03:43:49;;;;;;;17.50;9.85;;;1.70;94.10;;;;;;4998447;28;20037;-76
2022/11/20 03:46:14;;;;;;;16.80;9.07;;;1.70;94.10;;;;;;5008259;28;20034;-76
2022/11/20 03:48:40;;;;;;;17.35;8.90;;;1.70;94.10;;;;;;5003414;28;20045;-76
2022/11/20 03:51:14;;;;;;;19.08;9.60;;;1.70;94.10;;;;;;4996569;28;20030;-76
2022/11/20 03:53:42;;;;;;;16.80;8.60;;;1.70;94.20;;;;;;5002191;28;20061;-76
2022/11/20 03:56:09;;;;;;;18.15;8.20;;;1.70;94.10;;;;;;5000814;28;20034;-76
2022/11/20 03:58:37;;;;;;;18.13;9.15;;;1.70;94.20;;;;;;5006920;28;20041;-76
2022/11/20 04:01:08;;;;;;;17.27;8.82;;;1.80;94.10;;;;;;5003954;28;20111;-76
2022/11/20 04:03:34;;;;;;;18.65;9.27;;;1.90;94.00;;;;;;4999268;28;20208;-76
2022/11/20 04:06:05;;;;;;;16.42;8.45;;;1.90;93.60;;;;;;4999161;28;20030;-76
2022/11/20 04:08:32;;;;;;;20.10;9.13;;;2.00;93.70;;;;;;5003956;28;20133;-76
2022/11/20 04:11:14;;;;;;;18.02;9.07;;;1.90;93.70;;;;;;5001309;28;20641;-76
2022/11/20 04:13:41;;;;;;;20.58;9.02;;;1.90;93.80;;;;;;4999281;28;20045;-74
2022/11/20 04:16:08;;;;;;;16.30;8.75;;;1.90;93.90;;;;;;5006907;28;20653;-74
2022/11/20 04:18:34;;;;;;;18.13;9.50;;;1.90;93.90;;;;;;5001400;28;20038;-76
2022/11/20 04:21:01;;;;;;;15.70;8.60;;;2.00;93.80;;;;;;5006966;28;20096;-76
2022/11/20 04:23:27;;;;;;;17.63;8.85;;;2.00;93.60;;;;;;4987446;28;20038;-76
2022/11/20 04:25:53;;;;;;;16.35;8.98;;;2.00;93.70;;;;;;4999747;28;20080;-76
2022/11/20 04:28:19;;;;;;;16.15;9.45;;;2.10;93.60;;;;;;4998337;28;20066;-76
2022/11/20 04:30:45;;;;;;;16.92;8.88;;;2.10;93.30;;;;;;5005935;28;20077;-76
2022/11/20 04:33:11;;;;;;;17.13;8.77;;;2.10;93.60;;;;;;5006960;28;20038;-76
2022/11/20 04:35:37;;;;;;;18.63;9.02;;;1.90;93.90;;;;;;5004457;28;20921;-74
2022/11/20 04:38:04;;;;;;;18.40;9.10;;;1.90;94.10;;;;;;5000131;28;20048;-76
2022/11/20 04:40:30;;;;;;;20.33;9.40;;;1.90;94.20;;;;;;5003394;28;20044;-76
2022/11/20 04:42:56;;;;;;;19.58;9.25;;;1.90;94.10;;;;;;4999710;28;20531;-76
2022/11/20 04:45:23;;;;;;;20.80;8.93;;;2.00;94.10;;;;;;5000068;28;20042;-76
2022/11/20 04:47:48;;;;;;;17.83;9.00;;;2.00;93.90;;;;;;5000604;28;20474;-73
2022/11/20 04:50:14;;;;;;;17.85;8.73;;;2.10;93.90;;;;;;5005406;28;20435;-75
2022/11/20 04:52:40;;;;;;;15.77;8.68;;;2.10;93.90;;;;;;5017255;28;20129;-76
2022/11/20 04:55:06;;;;;;;15.25;7.40;;;2.10;93.90;;;;;;5001527;28;20041;-76
2022/11/20 04:57:32;;;;;;;11.65;7.07;;;2.20;93.90;;;;;;5010295;28;20041;-76
2022/11/20 04:59:58;;;;;;;21.35;9.00;;;2.30;93.80;;;;;;5004681;28;20045;-73
2022/11/20 05:02:24;;;;;;;18.83;9.25;;;2.40;93.60;;;;;;5003097;28;20038;-74
2022/11/20 05:04:49;;;;;;;17.85;9.32;;;2.40;93.50;;;;;;5003843;28;20049;-74
2022/11/20 05:07:15;;;;;;;17.05;8.77;;;2.50;93.30;;;;;;5005087;28;20145;-74
2022/11/20 05:09:41;;;;;;;16.05;8.85;;;2.50;93.10;;;;;;5012166;28;20040;-74
2022/11/20 05:12:10;;;;;;;15.77;8.88;;;2.50;93.10;;;;;;5004497;28;20521;-76
2022/11/20 05:14:36;;;;;;;15.15;7.82;;;2.50;93.00;;;;;;5005710;28;20041;-74
2022/11/20 05:17:01;;;;;;;16.92;8.40;;;2.50;93.10;;;;;;5006226;28;20038;-74
2022/11/20 05:19:27;;;;;;;18.10;8.73;;;2.50;93.10;;;;;;5005078;28;20053;-74
2022/11/20 05:21:53;;;;;;;18.73;8.90;;;2.50;92.80;;;;;;5003759;28;20144;-74
2022/11/20 05:24:19;;;;;;;17.42;8.35;;;2.60;92.90;;;;;;5003323;28;20045;-74
2022/11/20 05:26:44;;;;;;;16.75;8.40;;;2.60;92.90;;;;;;5004514;28;20032;-74
2022/11/20 05:29:11;;;;;;;19.08;8.93;;;2.50;92.90;;;;;;5006829;28;20043;-74
2022/11/20 05:31:40;;;;;;;17.90;8.88;;;2.60;93.00;;;;;;5005176;28;20449;-74
2022/11/20 05:34:06;;;;;;;15.57;8.18;;;2.60;92.90;;;;;;5006598;28;20053;-74
2022/11/20 05:36:32;;;;;;;15.63;8.23;;;2.60;92.80;;;;;;5001822;28;20038;-74
2022/11/20 05:38:57;;;;;;;18.90;8.80;;;2.60;92.80;;;;;;4994835;28;20030;-74
2022/11/20 05:41:24;;;;;;;16.73;8.48;;;2.60;92.80;;;;;;4996800;28;20870;-74
2022/11/20 05:43:49;;;;;;;16.50;8.27;;;2.60;92.90;;;;;;5002264;28;20120;-74
2022/11/20 05:46:18;;;;;;;17.00;9.35;;;2.60;92.70;;;;;;4997710;28;20048;-76
2022/11/20 05:48:45;;;;;;;14.95;8.35;;;2.60;92.70;;;;;;5001406;28;20115;-74
2022/11/20 05:51:14;;;;;;;20.10;9.38;;;2.50;92.80;;;;;;4995445;28;20033;-74
2022/11/20 05:53:40;;;;;;;20.15;9.45;;;2.50;92.80;;;;;;4992680;28;20042;-74
2022/11/20 05:56:09;;;;;;;18.55;9.50;;;2.40;92.70;;;;;;4995743;28;20107;-76
2022/11/20 05:58:36;;;;;;;18.38;9.43;;;2.40;92.80;;;;;;4996582;28;20678;-77
2022/11/20 06:01:20;;;;;;;17.85;9.65;;;2.30;93.10;;;;;;5000295;28;20154;-76
2022/11/20 06:03:47;;;;;;;20.38;9.30;;;2.30;93.10;;;;;;4994884;28;20122;-76
2022/11/20 06:06:14;;;;;;;19.10;10.52;;;2.30;93.10;;;;;;4989552;28;20038;-76
2022/11/20 06:08:40;;;;;;;22.15;10.00;;;2.20;93.20;;;;;;5005252;28;20030;-76
2022/11/20 06:11:08;;;;;;;17.23;8.85;;;2.20;93.20;;;;;;4986278;28;20038;-76
2022/11/20 06:13:35;;;;;;;19.13;9.63;;;2.20;93.20;;;;;;5001190;28;20041;-76
2022/11/20 06:16:01;;;;;;;22.50;10.57;;;2.20;93.30;;;;;;4996587;28;20108;-77
2022/11/20 06:18:28;;;;;;;24.13;10.23;;;2.10;93.20;;;;;;5002537;28;20042;-76
2022/11/20 06:21:21;;;;;;;20.70;9.90;;;2.10;93.40;;;;;;5000058;28;20046;-76
2022/11/20 06:23:47;;;;;;;21.70;10.98;;;2.10;93.50;;;;;;4990797;28;20727;-76
2022/11/20 06:26:18;;;;;;;21.98;11.20;;;2.00;93.30;;;;;;4999620;28;20041;-76
2022/11/20 06:28:44;;;;;;;20.73;9.43;;;2.00;93.20;;;;;;5000435;28;20030;-77
2022/11/20 06:31:13;;;;;;;23.23;9.52;;;2.00;93.30;;;;;;4995004;28;20041;-76
2022/11/20 06:33:39;;;;;;;17.80;9.55;;;2.00;93.30;;;;;;4995555;28;20038;-76
2022/11/20 06:36:05;;;;;;;20.30;10.15;;;1.90;93.50;;;;;;4992595;28;20038;-77
2022/11/20 06:38:31;;;;;;;21.02;10.18;;;2.00;93.60;;;;;;4999510;28;21074;-76
2022/11/20 06:40:57;;;;;;;18.90;9.00;;;2.10;93.40;;;;;;4998012;28;20072;-76
2022/11/20 06:43:24;;;;;;;22.10;10.45;;;2.00;93.50;;;;;;5005252;28;20116;-76
2022/11/20 06:45:54;;;;;;;20.77;9.80;;;2.10;93.50;;;;;;4999286;28;20033;-76
2022/11/20 06:48:20;;;;;;;20.17;10.27;;;2.10;93.30;;;;;;4993617;28;20111;-76
2022/11/20 06:50:46;;;;;;;20.88;9.68;;;2.10;93.20;;;;;;4992857;28;20065;-76
2022/11/20 06:53:12;;;;;;;15.45;8.43;;;2.20;93.20;;;;;;4998983;28;20133;-76
2022/11/20 06:55:45;;;;;;;16.35;8.70;;;2.20;93.20;;;;;;4992691;28;20131;-75
2022/11/20 06:58:12;;;;;;;19.30;9.52;;;2.30;92.90;;;;;;5000786;28;20821;-75
2022/11/20 07:00:38;;;;;;;30.45;11.48;;;2.30;92.80;;;;;;4996465;28;20037;-75
2022/11/20 07:03:05;;;;;;;34.42;13.20;;;2.30;92.70;;;;;;5000802;28;20483;-75
2022/11/20 07:05:30;;;;;;;26.95;12.40;;;2.30;92.70;;;;;;5001483;28;20832;-76
2022/11/20 07:07:57;;;;;;;34.28;16.92;;;2.40;92.60;;;;;;5003504;28;20038;-76
2022/11/20 07:10:24;;;;;;;18.00;10.15;;;2.40;92.50;;;;;;4984630;28;20063;-72
2022/11/20 07:12:51;;;;;;;19.90;11.65;;;2.40;92.40;;;;;;4995515;28;20133;-76
2022/11/20 07:15:21;;;;;;;20.30;11.23;;;2.20;92.40;;;;;;4999247;28;20572;-76
2022/11/20 07:17:47;;;;;;;24.08;13.38;;;2.00;92.70;;;;;;4992444;28;20045;-76
2022/11/20 07:20:13;;;;;;;25.40;10.60;;;1.90;93.20;;;;;;4987762;28;20027;-75
2022/11/20 07:22:39;;;;;;;20.02;9.95;;;1.80;93.50;;;;;;4998142;28;20038;-74
2022/11/20 07:25:05;;;;;;;26.27;11.88;;;1.70;93.60;;;;;;4998650;28;20052;-75
2022/11/20 07:27:31;;;;;;;24.38;11.50;;;1.70;93.70;;;;;;5005348;28;20110;-75
2022/11/20 07:29:57;;;;;;;21.60;11.20;;;1.70;93.60;;;;;;4992597;28;20037;-76
2022/11/20 07:32:23;;;;;;;29.05;12.48;;;1.70;93.90;;;;;;4996701;28;20096;-76
2022/11/20 07:34:49;;;;;;;20.42;10.63;;;1.70;93.70;;;;;;4996356;28;20034;-77
2022/11/20 07:37:15;;;;;;;25.77;11.35;;;1.70;93.70;;;;;;5001652;28;20520;-75
2022/11/20 07:39:42;;;;;;;20.10;10.65;;;1.80;93.50;;;;;;5001086;28;20101;-69
2022/11/20 07:42:08;;;;;;;20.83;10.00;;;1.90;93.60;;;;;;5024499;28;20034;-70
2022/11/20 07:44:36;;;;;;;22.35;10.25;;;1.90;93.40;;;;;;5003999;28;20044;-70
2022/11/20 07:47:02;;;;;;;25.38;11.27;;;2.00;93.50;;;;;;5003088;28;20038;-71
2022/11/20 07:49:28;;;;;;;22.35;10.50;;;2.00;93.30;;;;;;5003400;28;20036;-70
2022/11/20 07:51:54;;;;;;;21.02;10.40;;;2.00;93.40;;;;;;5002029;28;20145;-70
2022/11/20 07:54:22;;;;;;;23.80;10.32;;;2.10;93.40;;;;;;5001807;28;20045;-71
2022/11/20 07:56:49;;;;;;;30.98;13.77;;;2.20;93.40;;;;;;5001178;28;20037;-70
2022/11/20 07:59:18;;;;;;;20.77;10.32;;;2.30;92.90;;;;;;4991288;28;20077;-73
2022/11/20 08:01:44;;;;;;;19.17;10.52;;;2.40;92.90;;;;;;5009513;28;20528;-73
2022/11/20 08:04:09;;;;;;;16.15;8.95;;;2.40;92.60;;;;;;5004619;28;20038;-73
2022/11/20 08:06:36;;;;;;;20.95;9.48;;;2.50;92.70;;;;;;5007103;28;20038;-73
2022/11/20 08:09:02;;;;;;;17.67;8.77;;;2.60;92.40;;;;;;5001288;28;20047;-74
2022/11/20 08:14:13;;;;;;;21.33;10.15;;;2.70;92.00;;;;;;4998927;28;20091;-78
2022/11/20 08:16:44;;;;;;;16.75;8.40;;;2.80;92.00;;;;;;5005109;28;20038;-79
2022/11/20 08:19:10;;;;;;;21.25;9.45;;;2.80;91.70;;;;;;5001029;28;20037;-79
2022/11/20 08:21:36;;;;;;;19.17;8.95;;;2.70;92.00;;;;;;5008680;28;20056;-79
2022/11/20 08:24:02;;;;;;;17.08;9.18;;;2.60;91.80;;;;;;5004007;28;20049;-78
2022/11/20 08:26:28;;;;;;;15.90;7.65;;;2.60;92.00;;;;;;5003944;28;20034;-80
2022/11/20 08:28:55;;;;;;;15.75;7.90;;;2.60;91.90;;;;;;4998191;28;20032;-76
2022/11/20 08:31:22;;;;;;;17.02;8.43;;;2.60;91.90;;;;;;5000868;28;20749;-78
2022/11/20 08:33:49;;;;;;;17.45;7.75;;;2.70;91.70;;;;;;4993765;28;20330;-78
2022/11/20 08:36:14;;;;;;;16.45;8.68;;;2.70;91.60;;;;;;5003198;28;20045;-78
2022/11/20 08:38:40;;;;;;;17.20;7.70;;;2.70;91.50;;;;;;5008152;28;20710;-78
2022/11/20 08:41:27;;;;;;;16.42;9.07;;;2.80;91.80;;;;;;5001810;28;20041;-77
2022/11/20 08:43:56;;;;;;;15.93;7.80;;;2.90;91.90;;;;;;5003909;28;20666;-81
2022/11/20 08:46:24;;;;;;;15.20;8.15;;;3.00;91.80;;;;;;5000827;28;20557;-81
2022/11/20 08:48:50;;;;;;;18.80;8.90;;;3.00;91.80;;;;;;5001245;28;20574;-79
2022/11/20 08:51:17;;;;;;;17.33;9.63;;;3.10;91.50;;;;;;5001834;28;20034;-79
2022/11/20 08:53:43;;;;;;;21.23;10.20;;;3.10;91.30;;;;;;5001581;28;20041;-76
2022/11/20 08:56:09;;;;;;;19.75;10.40;;;3.20;91.10;;;;;;5001089;28;20040;-76
2022/11/20 08:58:36;;;;;;;20.58;11.18;;;3.20;90.90;;;;;;5009344;28;20766;-77
2022/11/20 09:01:02;;;;;;;18.40;8.38;;;3.20;90.60;;;;;;4999974;28;20776;-77
2022/11/20 09:03:28;;;;;;;19.73;8.27;;;3.20;90.80;;;;;;5000475;28;20531;-78
2022/11/20 09:06:02;;;;;;;15.50;8.93;;;3.20;90.60;;;;;;5000035;28;20111;-77
2022/11/20 09:08:28;;;;;;;17.05;9.07;;;3.10;90.40;;;;;;5008817;28;20081;-79
2022/11/20 09:10:55;;;;;;;17.25;9.27;;;3.00;90.50;;;;;;4997663;28;20091;-80
2022/11/20 09:13:22;;;;;;;16.50;8.63;;;2.90;90.40;;;;;;5004388;28;20049;-77
2022/11/20 09:15:53;;;;;;;17.63;8.93;;;2.70;90.90;;;;;;5008466;28;20033;-78
2022/11/20 09:18:19;;;;;;;15.75;8.32;;;2.70;91.10;;;;;;5002641;28;20133;-79
2022/11/20 09:20:45;;;;;;;15.90;8.45;;;2.70;91.10;;;;;;5005091;28;20034;-78
2022/11/20 09:23:10;;;;;;;16.30;8.43;;;2.60;90.80;;;;;;5002578;28;20058;-79
2022/11/20 09:25:36;;;;;;;15.20;7.90;;;2.50;90.90;;;;;;5000653;28;20041;-79
2022/11/20 09:28:02;;;;;;;17.30;8.57;;;2.30;91.40;;;;;;5002909;28;20038;-79
2022/11/20 09:30:28;;;;;;;15.57;7.88;;;2.20;91.80;;;;;;4995372;28;20061;-73
2022/11/20 09:32:53;;;;;;;17.58;9.05;;;2.20;91.80;;;;;;5005870;28;20977;-78
2022/11/20 09:35:19;;;;;;;16.98;9.05;;;2.10;91.90;;;;;;5002680;28;20062;-75
2022/11/20 09:37:45;;;;;;;15.07;8.10;;;2.00;92.20;;;;;;5002759;28;20116;-71
2022/11/20 09:40:21;;;;;;;17.35;8.57;;;2.00;92.40;;;;;;4998982;28;20103;-75
2022/11/20 09:43:08;;;;;;;16.88;8.45;;;2.00;92.40;;;;;;5001659;28;20041;-74
2022/11/20 09:46:02;;;;;;;14.25;8.43;;;2.10;92.10;;;;;;5000829;28;20038;-77
2022/11/20 09:48:52;;;;;;;15.65;8.05;;;1.80;92.20;;;;;;4991458;28;20136;-76
2022/11/20 09:51:27;;;;;;;16.05;8.88;;;1.80;92.90;;;;;;5009084;28;20620;-76
2022/11/20 09:54:12;;;;;;;14.48;8.63;;;1.90;93.00;;;;;;5001026;28;20037;-75
2022/11/20 09:56:42;;;;;;;19.58;8.05;;;2.10;92.70;;;;;;5006399;28;20041;-76
2022/11/20 09:59:18;;;;;;;15.40;7.47;;;2.10;91.80;;;;;;5001648;28;20324;-76
2022/11/20 10:01:45;;;;;;;;;;;2.00;92.20;;;;;;5005648;28;20391;-76
2022/11/20 10:04:18;;;;;;;13.52;7.50;;;2.20;92.20;;;;;;5005310;28;20025;-78
2022/11/20 10:06:56;;;;;;;13.80;8.07;;;2.30;91.70;;;;;;5008056;28;20207;-78
2022/11/20 10:09:39;;;;;;;16.83;9.32;;;2.30;92.00;;;;;;5005495;28;20037;-78
2022/11/20 10:12:13;;;;;;;13.52;8.18;;;2.40;91.60;;;;;;4999022;28;20064;-77
2022/11/20 10:14:49;;;;;;;13.52;7.90;;;2.40;91.50;;;;;;5001823;28;20033;-76
2022/11/20 10:17:30;;;;;;;15.90;7.85;;;2.40;91.50;;;;;;5007783;28;20038;-76
2022/11/20 10:20:19;;;;;;;14.38;8.50;;;2.40;91.20;;;;;;4997478;28;20141;-76
2022/11/20 10:22:58;;;;;;;14.88;8.18;;;2.20;91.10;;;;;;5000843;28;20037;-76
2022/11/20 10:25:38;;;;;;;13.75;7.65;;;2.30;91.60;;;;;;5004122;28;20033;-77
2022/11/20 10:28:25;;;;;;;18.23;9.02;;;2.20;91.70;;;;;;5005095;28;20088;-76
2022/11/20 10:31:02;;;;;;;11.27;6.63;;;2.40;91.80;;;;;;5007528;28;20044;-78
2022/11/20 10:33:30;;;;;;;;;;;2.40;91.10;;;;;;5004898;28;20073;-76
2022/11/20 10:36:18;;;;;;;13.43;6.78;;;2.50;91.30;;;;;;5003708;28;19913;-77
2022/11/20 10:38:57;;;;;;;15.50;6.75;;;2.60;90.80;;;;;;5002850;28;20173;-77
2022/11/20 10:41:29;;;;;;;12.90;7.10;;;2.70;90.70;;;;;;5005120;28;20071;-76
2022/11/20 10:45:00;;;;;;;12.63;7.82;;;2.80;90.50;;;;;;5003528;28;20508;-77
2022/11/20 10:47:10;;;;;;;11.82;7.03;;;2.80;90.00;;;;;;5001379;28;20498;-75
2022/11/20 10:49:36;;;;;;;14.20;6.80;;;2.80;90.60;;;;;;4996238;28;20030;-76
2022/11/20 10:52:32;;;;;;;13.77;7.32;;;2.90;90.30;;;;;;5005255;28;20103;-76
2022/11/20 10:55:20;;;;;;;14.80;7.10;;;3.10;90.20;;;;;;5001273;28;20498;-76
2022/11/20 10:58:06;;;;;;;16.13;7.80;;;3.30;89.90;;;;;;5005614;28;20029;-77
2022/11/20 11:00:32;;;;;;;;;;;3.50;88.80;;;;;;5004711;28;20058;-75
2022/11/20 11:03:04;;;;;;;16.93;7.63;;;3.50;88.50;;;;;;5003378;28;19914;-75
2022/11/20 11:06:22;;;;;;;17.92;8.63;;;3.50;88.50;;;;;;5009449;28;20106;-77
2022/11/20 11:08:50;;;;;;;19.75;8.77;;;3.60;88.10;;;;;;4927782;28;20035;-75
2022/11/20 11:11:28;;;;;;;21.95;10.23;;;3.50;88.00;;;;;;5000004;28;20445;-76
2022/11/20 11:14:14;;;;;;;18.60;9.48;;;3.50;88.40;;;;;;5000766;28;20042;-76
2022/11/20 11:16:51;;;;;;;17.48;10.07;;;3.60;88.30;;;;;;5003531;28;20046;-76
2022/11/20 11:19:17;;;;;;;18.65;9.93;;;3.90;88.70;;;;;;5002206;28;20080;-76
2022/11/20 11:22:10;;;;;;;17.38;9.27;;;4.10;88.10;;;;;;4989480;28;20141;-76
2022/11/20 11:24:36;;;;;;;21.25;11.40;;;4.30;88.10;;;;;;5016088;28;20025;-76
2022/11/20 11:27:10;;;;;;;20.63;10.93;;;4.40;86.40;;;;;;5009177;28;20762;-76
2022/11/20 11:29:36;;;;;;;23.90;9.63;;;4.40;85.50;;;;;;5004670;28;20154;-76
2022/11/20 11:32:20;;;;;;;15.90;6.90;;;4.40;86.10;;;;;;5006763;28;20036;-77
2022/11/20 11:34:59;;;;;;;18.00;8.82;;;4.30;86.10;;;;;;5004968;28;20041;-76
2022/11/20 11:37:33;;;;;;;14.55;7.72;;;4.30;87.30;;;;;;5005151;28;20042;-77
2022/11/20 11:40:01;;;;;;;13.32;7.55;;;4.30;87.30;;;;;;5001342;28;20498;-77
2022/11/20 11:42:29;;;;;;;9.40;5.18;;;4.30;86.00;;;;;;5000835;28;20606;-73
2022/11/20 11:45:05;;;;;;;7.72;4.80;;;4.30;86.80;;;;;;5008635;28;20045;-74
2022/11/20 11:47:32;;;;;;;8.05;4.40;;;4.40;87.40;;;;;;5010550;28;20042;-73
2022/11/20 11:50:10;;;;;;;10.98;4.45;;;4.20;86.80;;;;;;5001754;28;20037;-73
2022/11/20 11:52:50;;;;;;;11.38;4.03;;;4.10;87.70;;;;;;4999361;28;20741;-72
2022/11/20 11:55:42;;;;;;;9.93;4.97;;;3.90;88.80;;;;;;4990431;28;20030;-73
2022/11/20 11:58:08;;;;;;;7.63;3.88;;;3.90;89.70;;;;;;4991632;28;20140;-73
2022/11/20 12:00:36;;;;;;;7.45;4.75;;;3.90;89.60;;;;;;4997362;28;20034;-74
2022/11/20 12:03:11;;;;;;;6.63;3.95;;;3.80;89.80;;;;;;5002285;28;20042;-72
2022/11/20 12:05:44;;;;;;;8.63;4.65;;;3.80;90.30;;;;;;5003009;28;20501;-73
2022/11/20 12:08:23;;;;;;;12.25;5.10;;;3.70;90.80;;;;;;5005258;28;20045;-72
2022/11/20 12:11:30;;;;;;;10.43;5.43;;;3.60;91.50;;;;;;5004336;28;20494;-73
2022/11/20 12:14:26;;;;;;;11.45;6.03;;;3.70;91.60;;;;;;5000484;28;20065;-70
2022/11/20 12:16:53;;;;;;;11.23;5.72;;;3.70;91.60;;;;;;4997550;28;20042;-72
2022/11/20 12:19:18;;;;;;;11.75;6.28;;;3.70;91.30;;;;;;5002078;28;20048;-72
2022/11/20 12:22:21;;;;;;;12.05;6.00;;;3.80;91.50;;;;;;5007921;28;20034;-72
2022/11/20 12:25:06;;;;;;;11.88;6.22;;;3.90;91.50;;;;;;5005574;28;20761;-72
2022/11/20 12:28:14;;;;;;;12.30;6.50;;;3.90;91.50;;;;;;5008622;28;20115;-72
2022/11/20 12:30:58;;;;;;;11.45;6.57;;;3.90;91.60;;;;;;5002220;28;20021;-71
2022/11/20 12:33:42;;;;;;;12.27;6.40;;;3.80;91.60;;;;;;5005322;28;20117;-71
2022/11/20 12:36:17;;;;;;;11.65;6.35;;;3.90;91.50;;;;;;5002637;28;20065;-71
2022/11/20 12:38:55;;;;;;;10.13;5.53;;;4.00;91.60;;;;;;4997738;28;20034;-71
2022/11/20 12:47:51;;;;;;;12.25;6.60;;;4.10;91.00;;;;;;5005198;28;20802;-71
2022/11/20 12:50:37;;;;;;;10.38;6.40;;;4.10;90.90;;;;;;5004519;28;20121;-71
2022/11/20 12:53:10;;;;;;;13.23;6.97;;;4.10;91.00;;;;;;5000995;28;20055;-71
2022/11/20 12:55:51;;;;;;;11.25;6.40;;;4.10;91.20;;;;;;5000346;28;20030;-71
2022/11/20 12:58:29;;;;;;;10.65;5.80;;;4.10;90.90;;;;;;5001938;28;20062;-70
2022/11/20 13:01:09;;;;;;;8.90;5.50;;;4.10;90.80;;;;;;5008529;28;20052;-73
2022/11/20 13:03:53;;;;;;;13.50;5.55;;;4.10;91.00;;;;;;5002888;28;20075;-71
2022/11/20 13:06:19;;;;;;;11.68;5.72;;;4.20;91.00;;;;;;5006626;28;20655;-73
2022/11/20 13:08:53;;;;;;;7.97;4.78;;;4.30;90.70;;;;;;5004867;28;20034;-72
2022/11/20 13:11:25;;;;;;;11.50;5.97;;;4.20;90.60;;;;;;5003191;28;20040;-72
2022/11/20 13:14:30;;;;;;;7.80;5.28;;;3.90;91.20;;;;;;5000494;28;20034;-71
2022/11/20 13:17:28;;;;;;;13.98;7.00;;;3.90;91.30;;;;;;5000303;28;20041;-71
2022/11/20 13:19:58;;;;;;;11.82;6.60;;;3.80;91.50;;;;;;5008174;28;20759;-72